sensor_id;sensor_type;location;lat;lon;timestamp;pressure;altitude;pressure_sealevel;temperature;humidity
25944;BME280;13742;49.306;8.636;2023-12-20T00:00:14;100642.83;;;5.37;100.00
25944;BME280;13742;49.306;8.636;2023-12-20T00:01:13;100642.63;;;5.37;100.00
25944;BME280;13742;49.306;8.636;2023-12-20T00:02:14;100640.05;;;5.36;100.00
25944;BME280;13742;49.306;8.636;2023-12-20T00:03:13;100639.94;;;5.36;100.00
25944;BME280;13742;49.306;8.636;2023-12-20T00:04:13;100635.48;;;5.36;100.00
25944;BME280;13742;49.306;8.636;2023-12-20T00:05:13;100634.86;;;5.36;100.00
25944;BME280;13742;49.306;8.636;2023-12-20T00:06:13;100641.25;;;5.36;100.00
25944;BME280;13742;49.306;8.636;2023-12-20T00:07:13;100634.93;;;5.37;100.00
25944;BME280;13742;49.306;8.636;2023-12-20T00:08:13;100635.50;;;5.37;100.00
25944;BME280;13742;49.306;8.636;2023-12-20T00:09:13;100631.53;;;5.35;100.00
25944;BME280;13742;49.306;8.636;2023-12-20T00:10:13;100630.94;;;5.35;100.00
25944;BME280;13742;49.306;8.636;2023-12-20T00:11:13;100628.09;;;5.35;100.00
25944;BME280;13742;49.306;8.636;2023-12-20T00:12:14;100631.22;;;5.36;100.00
25944;BME280;13742;49.306;8.636;2023-12-20T00:13:13;100631.42;;;5.36;100.00
25944;BME280;13742;49.306;8.636;2023-12-20T00:14:13;100633.39;;;5.36;100.00
25944;BME280;13742;49.306;8.636;2023-12-20T00:15:13;100629.83;;;5.36;100.00
25944;BME280;13742;49.306;8.636;2023-12-20T00:16:13;100631.48;;;5.37;100.00
25944;BME280;13742;49.306;8.636;2023-12-20T00:17:13;100634.11;;;5.37;100.00
25944;BME280;13742;49.306;8.636;2023-12-20T00:18:13;100630.29;;;5.35;100.00
25944;BME280;13742;49.306;8.636;2023-12-20T00:19:13;100631.66;;;5.37;100.00
25944;BME280;13742;49.306;8.636;2023-12-20T00:20:13;100631.38;;;5.36;100.00
25944;BME280;13742;49.306;8.636;2023-12-20T00:21:14;100633.67;;;5.36;100.00
25944;BME280;13742;49.306;8.636;2023-12-20T00:22:13;100629.34;;;5.36;100.00
25944;BME280;13742;49.306;8.636;2023-12-20T00:23:13;100631.70;;;5.36;100.00
25944;BME280;13742;49.306;8.636;2023-12-20T00:24:13;100636.09;;;5.38;100.00
25944;BME280;13742;49.306;8.636;2023-12-20T00:25:13;100635.24;;;5.37;100.00
25944;BME280;13742;49.306;8.636;2023-12-20T00:26:13;100635.83;;;5.37;100.00
25944;BME280;13742;49.306;8.636;2023-12-20T00:27:13;100634.69;;;5.37;100.00
25944;BME280;13742;49.306;8.636;2023-12-20T00:28:13;100631.20;;;5.36;100.00
25944;BME280;13742;49.306;8.636;2023-12-20T00:29:13;100635.17;;;5.37;100.00
25944;BME280;13742;49.306;8.636;2023-12-20T00:30:13;100636.41;;;5.37;100.00
25944;BME280;13742;49.306;8.636;2023-12-20T00:31:14;100637.22;;;5.37;100.00
25944;BME280;13742;49.306;8.636;2023-12-20T00:32:13;100634.47;;;5.37;100.00
25944;BME280;13742;49.306;8.636;2023-12-20T00:33:13;100637.91;;;5.37;100.00
25944;BME280;13742;49.306;8.636;2023-12-20T00:34:13;100635.90;;;5.37;100.00
25944;BME280;13742;49.306;8.636;2023-12-20T00:35:14;100637.95;;;5.37;100.00
25944;BME280;13742;49.306;8.636;2023-12-20T00:36:13;100638.13;;;5.38;100.00
25944;BME280;13742;49.306;8.636;2023-12-20T00:37:13;100634.75;;;5.37;100.00
25944;BME280;13742;49.306;8.636;2023-12-20T00:38:14;100637.65;;;5.38;100.00
25944;BME280;13742;49.306;8.636;2023-12-20T00:39:13;100635.95;;;5.37;100.00
25944;BME280;13742;49.306;8.636;2023-12-20T00:40:13;100629.63;;;5.36;100.00
25944;BME280;13742;49.306;8.636;2023-12-20T00:41:13;100633.72;;;5.38;100.00
25944;BME280;13742;49.306;8.636;2023-12-20T00:42:13;100631.08;;;5.37;100.00
25944;BME280;13742;49.306;8.636;2023-12-20T00:43:13;100628.79;;;5.37;100.00
25944;BME280;13742;49.306;8.636;2023-12-20T00:44:13;100623.45;;;5.36;100.00
25944;BME280;13742;49.306;8.636;2023-12-20T00:45:14;100629.28;;;5.37;100.00
25944;BME280;13742;49.306;8.636;2023-12-20T00:46:13;100620.60;;;5.37;100.00
25944;BME280;13742;49.306;8.636;2023-12-20T00:47:13;100626.89;;;5.37;100.00
25944;BME280;13742;49.306;8.636;2023-12-20T00:48:13;100621.05;;;5.37;100.00
25944;BME280;13742;49.306;8.636;2023-12-20T00:49:13;100624.80;;;5.38;100.00
25944;BME280;13742;49.306;8.636;2023-12-20T00:50:13;100624.60;;;5.37;100.00
25944;BME280;13742;49.306;8.636;2023-12-20T00:51:13;100623.62;;;5.37;100.00
25944;BME280;13742;49.306;8.636;2023-12-20T00:52:14;100618.87;;;5.37;100.00
25944;BME280;13742;49.306;8.636;2023-12-20T00:53:13;100618.59;;;5.37;100.00
25944;BME280;13742;49.306;8.636;2023-12-20T00:54:13;100621.27;;;5.38;100.00
25944;BME280;13742;49.306;8.636;2023-12-20T00:55:14;100616.68;;;5.38;100.00
25944;BME280;13742;49.306;8.636;2023-12-20T00:56:13;100619.94;;;5.39;100.00
25944;BME280;13742;49.306;8.636;2023-12-20T00:57:13;100614.97;;;5.38;100.00
25944;BME280;13742;49.306;8.636;2023-12-20T00:58:15;100617.88;;;5.38;100.00
25944;BME280;13742;49.306;8.636;2023-12-20T00:59:16;100616.03;;;5.38;100.00
25944;BME280;13742;49.306;8.636;2023-12-20T01:00:13;100613.23;;;5.39;100.00
25944;BME280;13742;49.306;8.636;2023-12-20T01:01:13;100617.50;;;5.38;100.00
25944;BME280;13742;49.306;8.636;2023-12-20T01:02:13;100616.61;;;5.38;100.00
25944;BME280;13742;49.306;8.636;2023-12-20T01:03:15;100615.09;;;5.38;100.00
25944;BME280;13742;49.306;8.636;2023-12-20T01:04:13;100611.75;;;5.39;100.00
25944;BME280;13742;49.306;8.636;2023-12-20T01:05:13;100611.39;;;5.39;100.00
25944;BME280;13742;49.306;8.636;2023-12-20T01:06:14;100613.21;;;5.40;100.00
25944;BME280;13742;49.306;8.636;2023-12-20T01:07:13;100613.06;;;5.39;100.00
25944;BME280;13742;49.306;8.636;2023-12-20T01:08:13;100610.40;;;5.39;100.00
25944;BME280;13742;49.306;8.636;2023-12-20T01:09:14;100614.17;;;5.39;100.00
25944;BME280;13742;49.306;8.636;2023-12-20T01:10:13;100614.92;;;5.38;100.00
25944;BME280;13742;49.306;8.636;2023-12-20T01:11:13;100617.16;;;5.39;100.00
25944;BME280;13742;49.306;8.636;2023-12-20T01:12:13;100615.48;;;5.39;100.00
25944;BME280;13742;49.306;8.636;2023-12-20T01:13:13;100616.99;;;5.39;100.00
25944;BME280;13742;49.306;8.636;2023-12-20T01:14:13;100625.02;;;5.39;100.00
25944;BME280;13742;49.306;8.636;2023-12-20T01:15:13;100618.58;;;5.38;100.00
25944;BME280;13742;49.306;8.636;2023-12-20T01:16:13;100619.74;;;5.39;100.00
25944;BME280;13742;49.306;8.636;2023-12-20T01:17:14;100619.30;;;5.38;100.00
25944;BME280;13742;49.306;8.636;2023-12-20T01:18:13;100616.12;;;5.38;100.00
25944;BME280;13742;49.306;8.636;2023-12-20T01:19:14;100616.06;;;5.39;100.00
25944;BME280;13742;49.306;8.636;2023-12-20T01:20:13;100616.35;;;5.38;100.00
25944;BME280;13742;49.306;8.636;2023-12-20T01:21:13;100610.91;;;5.39;100.00
25944;BME280;13742;49.306;8.636;2023-12-20T01:22:13;100608.87;;;5.38;100.00
25944;BME280;13742;49.306;8.636;2023-12-20T01:23:13;100609.27;;;5.39;100.00
25944;BME280;13742;49.306;8.636;2023-12-20T01:24:13;100603.73;;;5.39;100.00
25944;BME280;13742;49.306;8.636;2023-12-20T01:25:13;100605.76;;;5.38;100.00
25944;BME280;13742;49.306;8.636;2023-12-20T01:26:14;100607.12;;;5.38;100.00
25944;BME280;13742;49.306;8.636;2023-12-20T01:27:13;100603.19;;;5.38;100.00
25944;BME280;13742;49.306;8.636;2023-12-20T01:28:13;100605.12;;;5.37;100.00
25944;BME280;13742;49.306;8.636;2023-12-20T01:29:14;100602.70;;;5.38;100.00
25944;BME280;13742;49.306;8.636;2023-12-20T01:30:14;100598.88;;;5.38;100.00
25944;BME280;13742;49.306;8.636;2023-12-20T01:31:13;100599.25;;;5.38;100.00
25944;BME280;13742;49.306;8.636;2023-12-20T01:32:13;100600.97;;;5.38;100.00
25944;BME280;13742;49.306;8.636;2023-12-20T01:33:13;100600.42;;;5.39;100.00
25944;BME280;13742;49.306;8.636;2023-12-20T01:34:13;100598.23;;;5.38;100.00
25944;BME280;13742;49.306;8.636;2023-12-20T01:35:13;100597.39;;;5.39;100.00
25944;BME280;13742;49.306;8.636;2023-12-20T01:36:13;100601.78;;;5.38;100.00
25944;BME280;13742;49.306;8.636;2023-12-20T01:37:13;100600.63;;;5.38;100.00
25944;BME280;13742;49.306;8.636;2023-12-20T01:38:13;100598.23;;;5.38;100.00
25944;BME280;13742;49.306;8.636;2023-12-20T01:39:13;100596.58;;;5.39;100.00
25944;BME280;13742;49.306;8.636;2023-12-20T01:40:13;100596.91;;;5.39;100.00
25944;BME280;13742;49.306;8.636;2023-12-20T01:41:13;100594.25;;;5.38;100.00
25944;BME280;13742;49.306;8.636;2023-12-20T01:42:13;100593.69;;;5.38;100.00
25944;BME280;13742;49.306;8.636;2023-12-20T01:43:13;100592.67;;;5.37;100.00
25944;BME280;13742;49.306;8.636;2023-12-20T01:44:13;100599.01;;;5.38;100.00
25944;BME280;13742;49.306;8.636;2023-12-20T01:45:14;100599.38;;;5.37;100.00
25944;BME280;13742;49.306;8.636;2023-12-20T01:46:13;100599.95;;;5.40;100.00
25944;BME280;13742;49.306;8.636;2023-12-20T01:47:13;100600.48;;;5.38;100.00
25944;BME280;13742;49.306;8.636;2023-12-20T01:48:14;100601.14;;;5.38;100.00
25944;BME280;13742;49.306;8.636;2023-12-20T01:49:13;100602.44;;;5.38;100.00
25944;BME280;13742;49.306;8.636;2023-12-20T01:50:13;100599.48;;;5.38;100.00
25944;BME280;13742;49.306;8.636;2023-12-20T01:51:13;100597.77;;;5.40;100.00
25944;BME280;13742;49.306;8.636;2023-12-20T01:52:13;100597.47;;;5.39;100.00
25944;BME280;13742;49.306;8.636;2023-12-20T01:53:13;100598.64;;;5.40;100.00
25944;BME280;13742;49.306;8.636;2023-12-20T01:54:13;100595.16;;;5.40;100.00
25944;BME280;13742;49.306;8.636;2023-12-20T01:55:15;100595.66;;;5.39;100.00
25944;BME280;13742;49.306;8.636;2023-12-20T01:56:13;100598.72;;;5.40;100.00
25944;BME280;13742;49.306;8.636;2023-12-20T01:57:13;100595.88;;;5.38;100.00
25944;BME280;13742;49.306;8.636;2023-12-20T01:58:13;100599.20;;;5.39;100.00
25944;BME280;13742;49.306;8.636;2023-12-20T01:59:13;100598.92;;;5.40;100.00
25944;BME280;13742;49.306;8.636;2023-12-20T02:00:14;100599.59;;;5.39;100.00
25944;BME280;13742;49.306;8.636;2023-12-20T02:01:13;100600.66;;;5.39;100.00
25944;BME280;13742;49.306;8.636;2023-12-20T02:02:13;100598.97;;;5.40;100.00
25944;BME280;13742;49.306;8.636;2023-12-20T02:03:13;100596.80;;;5.39;100.00
25944;BME280;13742;49.306;8.636;2023-12-20T02:04:13;100601.09;;;5.40;100.00
25944;BME280;13742;49.306;8.636;2023-12-20T02:05:13;100601.36;;;5.41;100.00
25944;BME280;13742;49.306;8.636;2023-12-20T02:06:13;100599.50;;;5.42;100.00
25944;BME280;13742;49.306;8.636;2023-12-20T02:07:13;100596.31;;;5.42;100.00
25944;BME280;13742;49.306;8.636;2023-12-20T02:08:13;100594.51;;;5.42;100.00
25944;BME280;13742;49.306;8.636;2023-12-20T02:09:13;100596.31;;;5.42;100.00
25944;BME280;13742;49.306;8.636;2023-12-20T02:10:13;100597.78;;;5.42;100.00
25944;BME280;13742;49.306;8.636;2023-12-20T02:11:13;100597.98;;;5.42;100.00
25944;BME280;13742;49.306;8.636;2023-12-20T02:12:13;100603.94;;;5.41;100.00
25944;BME280;13742;49.306;8.636;2023-12-20T02:13:13;100602.94;;;5.42;100.00
25944;BME280;13742;49.306;8.636;2023-12-20T02:14:13;100598.25;;;5.41;100.00
25944;BME280;13742;49.306;8.636;2023-12-20T02:15:13;100597.76;;;5.41;100.00
25944;BME280;13742;49.306;8.636;2023-12-20T02:16:13;100595.41;;;5.42;100.00
25944;BME280;13742;49.306;8.636;2023-12-20T02:17:13;100602.84;;;5.42;100.00
25944;BME280;13742;49.306;8.636;2023-12-20T02:18:16;100601.04;;;5.42;100.00
25944;BME280;13742;49.306;8.636;2023-12-20T02:19:14;100603.60;;;5.43;100.00
25944;BME280;13742;49.306;8.636;2023-12-20T02:20:13;100597.60;;;5.42;100.00
25944;BME280;13742;49.306;8.636;2023-12-20T02:21:13;100599.42;;;5.42;100.00
25944;BME280;13742;49.306;8.636;2023-12-20T02:22:13;100597.00;;;5.42;100.00
25944;BME280;13742;49.306;8.636;2023-12-20T02:23:13;100596.05;;;5.43;100.00
25944;BME280;13742;49.306;8.636;2023-12-20T02:24:13;100598.52;;;5.43;100.00
25944;BME280;13742;49.306;8.636;2023-12-20T02:25:13;100599.88;;;5.43;100.00
25944;BME280;13742;49.306;8.636;2023-12-20T02:26:13;100599.39;;;5.43;100.00
25944;BME280;13742;49.306;8.636;2023-12-20T02:27:13;100601.30;;;5.44;100.00
25944;BME280;13742;49.306;8.636;2023-12-20T02:28:13;100593.20;;;5.44;100.00
25944;BME280;13742;49.306;8.636;2023-12-20T02:29:13;100595.30;;;5.43;100.00
25944;BME280;13742;49.306;8.636;2023-12-20T02:30:14;100592.45;;;5.42;100.00
25944;BME280;13742;49.306;8.636;2023-12-20T02:31:13;100592.34;;;5.43;100.00
25944;BME280;13742;49.306;8.636;2023-12-20T02:32:13;100596.72;;;5.43;100.00
25944;BME280;13742;49.306;8.636;2023-12-20T02:33:13;100597.64;;;5.44;100.00
25944;BME280;13742;49.306;8.636;2023-12-20T02:34:13;100591.84;;;5.44;100.00
25944;BME280;13742;49.306;8.636;2023-12-20T02:35:13;100591.97;;;5.43;100.00
25944;BME280;13742;49.306;8.636;2023-12-20T02:36:13;100589.84;;;5.43;100.00
25944;BME280;13742;49.306;8.636;2023-12-20T02:37:13;100597.63;;;5.44;100.00
25944;BME280;13742;49.306;8.636;2023-12-20T02:38:13;100597.97;;;5.44;100.00
25944;BME280;13742;49.306;8.636;2023-12-20T02:39:13;100602.14;;;5.45;100.00
25944;BME280;13742;49.306;8.636;2023-12-20T02:40:13;100598.84;;;5.44;100.00
25944;BME280;13742;49.306;8.636;2023-12-20T02:41:15;100601.80;;;5.43;100.00
25944;BME280;13742;49.306;8.636;2023-12-20T02:42:13;100602.53;;;5.46;100.00
25944;BME280;13742;49.306;8.636;2023-12-20T02:43:13;100604.69;;;5.44;100.00
25944;BME280;13742;49.306;8.636;2023-12-20T02:44:13;100607.17;;;5.45;100.00
25944;BME280;13742;49.306;8.636;2023-12-20T02:45:13;100611.28;;;5.44;100.00
25944;BME280;13742;49.306;8.636;2023-12-20T02:46:13;100609.26;;;5.45;100.00
25944;BME280;13742;49.306;8.636;2023-12-20T02:47:13;100611.81;;;5.45;100.00
25944;BME280;13742;49.306;8.636;2023-12-20T02:48:13;100610.95;;;5.44;100.00
25944;BME280;13742;49.306;8.636;2023-12-20T02:49:13;100609.45;;;5.46;100.00
25944;BME280;13742;49.306;8.636;2023-12-20T02:50:13;100613.30;;;5.45;100.00
25944;BME280;13742;49.306;8.636;2023-12-20T02:51:13;100617.30;;;5.44;100.00
25944;BME280;13742;49.306;8.636;2023-12-20T02:52:13;100617.07;;;5.45;100.00
25944;BME280;13742;49.306;8.636;2023-12-20T02:53:13;100618.81;;;5.46;100.00
25944;BME280;13742;49.306;8.636;2023-12-20T02:54:13;100614.70;;;5.46;100.00
25944;BME280;13742;49.306;8.636;2023-12-20T02:55:13;100612.84;;;5.46;100.00
25944;BME280;13742;49.306;8.636;2023-12-20T02:56:14;100607.23;;;5.46;100.00
25944;BME280;13742;49.306;8.636;2023-12-20T02:57:13;100602.33;;;5.45;100.00
25944;BME280;13742;49.306;8.636;2023-12-20T02:58:13;100602.66;;;5.45;100.00
25944;BME280;13742;49.306;8.636;2023-12-20T02:59:13;100606.53;;;5.46;100.00
25944;BME280;13742;49.306;8.636;2023-12-20T03:00:14;100601.61;;;5.46;100.00
25944;BME280;13742;49.306;8.636;2023-12-20T03:01:14;100602.78;;;5.48;100.00
25944;BME280;13742;49.306;8.636;2023-12-20T03:02:13;100599.03;;;5.47;100.00
25944;BME280;13742;49.306;8.636;2023-12-20T03:03:13;100595.97;;;5.47;100.00
25944;BME280;13742;49.306;8.636;2023-12-20T03:04:13;100593.80;;;5.46;100.00
25944;BME280;13742;49.306;8.636;2023-12-20T03:05:13;100588.88;;;5.47;100.00
25944;BME280;13742;49.306;8.636;2023-12-20T03:06:16;100588.55;;;5.47;100.00
25944;BME280;13742;49.306;8.636;2023-12-20T03:07:13;100583.14;;;5.47;100.00
25944;BME280;13742;49.306;8.636;2023-12-20T03:08:13;100585.41;;;5.46;100.00
25944;BME280;13742;49.306;8.636;2023-12-20T03:09:13;100590.40;;;5.47;100.00
25944;BME280;13742;49.306;8.636;2023-12-20T03:10:13;100588.92;;;5.47;100.00
25944;BME280;13742;49.306;8.636;2023-12-20T03:11:13;100594.77;;;5.47;100.00
25944;BME280;13742;49.306;8.636;2023-12-20T03:12:13;100599.23;;;5.47;100.00
25944;BME280;13742;49.306;8.636;2023-12-20T03:13:13;100597.29;;;5.46;100.00
25944;BME280;13742;49.306;8.636;2023-12-20T03:14:13;100600.61;;;5.46;100.00
25944;BME280;13742;49.306;8.636;2023-12-20T03:15:13;100603.79;;;5.46;100.00
25944;BME280;13742;49.306;8.636;2023-12-20T03:16:13;100597.13;;;5.46;100.00
25944;BME280;13742;49.306;8.636;2023-12-20T03:17:13;100594.55;;;5.46;100.00
25944;BME280;13742;49.306;8.636;2023-12-20T03:18:13;100592.36;;;5.47;100.00
25944;BME280;13742;49.306;8.636;2023-12-20T03:19:13;100592.45;;;5.46;100.00
25944;BME280;13742;49.306;8.636;2023-12-20T03:20:13;100593.47;;;5.46;100.00
25944;BME280;13742;49.306;8.636;2023-12-20T03:21:13;100595.22;;;5.47;100.00
25944;BME280;13742;49.306;8.636;2023-12-20T03:22:13;100599.65;;;5.46;100.00
25944;BME280;13742;49.306;8.636;2023-12-20T03:23:13;100606.28;;;5.47;100.00
25944;BME280;13742;49.306;8.636;2023-12-20T03:24:13;100603.95;;;5.46;100.00
25944;BME280;13742;49.306;8.636;2023-12-20T03:25:13;100608.82;;;5.46;100.00
25944;BME280;13742;49.306;8.636;2023-12-20T03:26:14;100607.56;;;5.46;100.00
25944;BME280;13742;49.306;8.636;2023-12-20T03:27:13;100604.80;;;5.47;100.00
25944;BME280;13742;49.306;8.636;2023-12-20T03:28:14;100606.35;;;5.47;100.00
25944;BME280;13742;49.306;8.636;2023-12-20T03:29:13;100599.86;;;5.46;100.00
25944;BME280;13742;49.306;8.636;2023-12-20T03:30:14;100603.13;;;5.47;100.00
25944;BME280;13742;49.306;8.636;2023-12-20T03:31:13;100603.28;;;5.47;100.00
25944;BME280;13742;49.306;8.636;2023-12-20T03:32:13;100607.88;;;5.47;100.00
25944;BME280;13742;49.306;8.636;2023-12-20T03:33:13;100604.08;;;5.46;100.00
25944;BME280;13742;49.306;8.636;2023-12-20T03:34:13;100604.59;;;5.47;100.00
25944;BME280;13742;49.306;8.636;2023-12-20T03:35:13;100600.50;;;5.47;100.00
25944;BME280;13742;49.306;8.636;2023-12-20T03:36:13;100596.20;;;5.47;100.00
25944;BME280;13742;49.306;8.636;2023-12-20T03:37:13;100596.16;;;5.47;100.00
25944;BME280;13742;49.306;8.636;2023-12-20T03:38:13;100591.56;;;5.47;100.00
25944;BME280;13742;49.306;8.636;2023-12-20T03:39:13;100592.05;;;5.47;100.00
25944;BME280;13742;49.306;8.636;2023-12-20T03:40:13;100591.45;;;5.47;100.00
25944;BME280;13742;49.306;8.636;2023-12-20T03:41:13;100597.00;;;5.48;100.00
25944;BME280;13742;49.306;8.636;2023-12-20T03:42:13;100596.48;;;5.47;100.00
25944;BME280;13742;49.306;8.636;2023-12-20T03:43:13;100596.72;;;5.48;100.00
25944;BME280;13742;49.306;8.636;2023-12-20T03:44:13;100596.88;;;5.48;100.00
25944;BME280;13742;49.306;8.636;2023-12-20T03:45:13;100599.90;;;5.48;100.00
25944;BME280;13742;49.306;8.636;2023-12-20T03:46:13;100602.29;;;5.48;100.00
25944;BME280;13742;49.306;8.636;2023-12-20T03:47:13;100595.04;;;5.48;100.00
25944;BME280;13742;49.306;8.636;2023-12-20T03:48:13;100589.41;;;5.49;100.00
25944;BME280;13742;49.306;8.636;2023-12-20T03:49:13;100592.20;;;5.48;100.00
25944;BME280;13742;49.306;8.636;2023-12-20T03:50:13;100590.08;;;5.48;100.00
25944;BME280;13742;49.306;8.636;2023-12-20T03:51:13;100594.05;;;5.48;100.00
25944;BME280;13742;49.306;8.636;2023-12-20T03:52:13;100596.17;;;5.48;100.00
25944;BME280;13742;49.306;8.636;2023-12-20T03:53:13;100595.64;;;5.48;100.00
25944;BME280;13742;49.306;8.636;2023-12-20T03:54:13;100595.64;;;5.48;100.00
25944;BME280;13742;49.306;8.636;2023-12-20T03:55:13;100589.24;;;5.49;100.00
25944;BME280;13742;49.306;8.636;2023-12-20T03:56:13;100593.89;;;5.48;100.00
25944;BME280;13742;49.306;8.636;2023-12-20T03:57:13;100594.80;;;5.49;100.00
25944;BME280;13742;49.306;8.636;2023-12-20T03:58:13;100591.05;;;5.49;100.00
25944;BME280;13742;49.306;8.636;2023-12-20T03:59:14;100592.50;;;5.49;100.00
25944;BME280;13742;49.306;8.636;2023-12-20T04:00:13;100588.70;;;5.49;100.00
25944;BME280;13742;49.306;8.636;2023-12-20T04:01:13;100590.27;;;5.48;100.00
25944;BME280;13742;49.306;8.636;2023-12-20T04:02:13;100589.85;;;5.49;100.00
25944;BME280;13742;49.306;8.636;2023-12-20T04:03:14;100595.13;;;5.49;100.00
25944;BME280;13742;49.306;8.636;2023-12-20T04:04:13;100599.83;;;5.50;100.00
25944;BME280;13742;49.306;8.636;2023-12-20T04:05:13;100596.56;;;5.49;100.00
25944;BME280;13742;49.306;8.636;2023-12-20T04:06:17;100596.99;;;5.50;100.00
25944;BME280;13742;49.306;8.636;2023-12-20T04:07:13;100594.26;;;5.50;100.00
25944;BME280;13742;49.306;8.636;2023-12-20T04:08:13;100592.57;;;5.50;100.00
25944;BME280;13742;49.306;8.636;2023-12-20T04:09:13;100594.86;;;5.50;100.00
25944;BME280;13742;49.306;8.636;2023-12-20T04:10:13;100591.51;;;5.50;100.00
25944;BME280;13742;49.306;8.636;2023-12-20T04:11:13;100589.40;;;5.51;100.00
25944;BME280;13742;49.306;8.636;2023-12-20T04:12:13;100591.77;;;5.51;100.00
25944;BME280;13742;49.306;8.636;2023-12-20T04:13:13;100587.37;;;5.50;100.00
25944;BME280;13742;49.306;8.636;2023-12-20T04:14:14;100589.45;;;5.51;100.00
25944;BME280;13742;49.306;8.636;2023-12-20T04:15:13;100583.98;;;5.50;100.00
25944;BME280;13742;49.306;8.636;2023-12-20T04:16:13;100587.35;;;5.51;100.00
25944;BME280;13742;49.306;8.636;2023-12-20T04:17:14;100592.78;;;5.52;100.00
25944;BME280;13742;49.306;8.636;2023-12-20T04:18:13;100598.88;;;5.52;100.00
25944;BME280;13742;49.306;8.636;2023-12-20T04:19:13;100594.09;;;5.52;100.00
25944;BME280;13742;49.306;8.636;2023-12-20T04:20:13;100602.26;;;5.53;100.00
25944;BME280;13742;49.306;8.636;2023-12-20T04:21:13;100597.03;;;5.52;100.00
25944;BME280;13742;49.306;8.636;2023-12-20T04:22:13;100601.61;;;5.53;100.00
25944;BME280;13742;49.306;8.636;2023-12-20T04:23:13;100602.11;;;5.52;100.00
25944;BME280;13742;49.306;8.636;2023-12-20T04:24:13;100602.42;;;5.51;100.00
25944;BME280;13742;49.306;8.636;2023-12-20T04:25:13;100605.59;;;5.52;100.00
25944;BME280;13742;49.306;8.636;2023-12-20T04:26:13;100608.38;;;5.52;100.00
25944;BME280;13742;49.306;8.636;2023-12-20T04:27:13;100607.66;;;5.53;100.00
25944;BME280;13742;49.306;8.636;2023-12-20T04:28:13;100607.89;;;5.52;100.00
25944;BME280;13742;49.306;8.636;2023-12-20T04:29:13;100607.28;;;5.51;100.00
25944;BME280;13742;49.306;8.636;2023-12-20T04:30:13;100609.86;;;5.52;100.00
25944;BME280;13742;49.306;8.636;2023-12-20T04:31:13;100615.13;;;5.52;100.00
25944;BME280;13742;49.306;8.636;2023-12-20T04:32:13;100615.59;;;5.52;100.00
25944;BME280;13742;49.306;8.636;2023-12-20T04:33:13;100620.47;;;5.53;100.00
25944;BME280;13742;49.306;8.636;2023-12-20T04:34:13;100614.17;;;5.53;100.00
25944;BME280;13742;49.306;8.636;2023-12-20T04:35:13;100619.33;;;5.53;100.00
25944;BME280;13742;49.306;8.636;2023-12-20T04:36:13;100618.73;;;5.54;100.00
25944;BME280;13742;49.306;8.636;2023-12-20T04:37:13;100622.03;;;5.53;100.00
25944;BME280;13742;49.306;8.636;2023-12-20T04:38:13;100625.02;;;5.53;100.00
25944;BME280;13742;49.306;8.636;2023-12-20T04:39:14;100625.44;;;5.54;100.00
25944;BME280;13742;49.306;8.636;2023-12-20T04:40:13;100627.75;;;5.54;100.00
25944;BME280;13742;49.306;8.636;2023-12-20T04:41:15;100631.02;;;5.54;100.00
25944;BME280;13742;49.306;8.636;2023-12-20T04:42:13;100627.75;;;5.54;100.00
25944;BME280;13742;49.306;8.636;2023-12-20T04:43:13;100625.72;;;5.53;100.00
25944;BME280;13742;49.306;8.636;2023-12-20T04:44:13;100628.94;;;5.53;100.00
25944;BME280;13742;49.306;8.636;2023-12-20T04:45:15;100623.66;;;5.53;100.00
25944;BME280;13742;49.306;8.636;2023-12-20T04:46:13;100630.32;;;5.54;100.00
25944;BME280;13742;49.306;8.636;2023-12-20T04:47:13;100636.97;;;5.53;100.00
25944;BME280;13742;49.306;8.636;2023-12-20T04:48:13;100637.23;;;5.54;100.00
25944;BME280;13742;49.306;8.636;2023-12-20T04:49:13;100644.54;;;5.55;100.00
25944;BME280;13742;49.306;8.636;2023-12-20T04:50:14;100650.27;;;5.55;100.00
25944;BME280;13742;49.306;8.636;2023-12-20T04:51:13;100648.52;;;5.55;100.00
25944;BME280;13742;49.306;8.636;2023-12-20T04:52:13;100642.86;;;5.56;100.00
25944;BME280;13742;49.306;8.636;2023-12-20T04:53:13;100641.53;;;5.56;100.00
25944;BME280;13742;49.306;8.636;2023-12-20T04:54:13;100643.67;;;5.56;100.00
25944;BME280;13742;49.306;8.636;2023-12-20T04:55:14;100643.30;;;5.56;100.00
25944;BME280;13742;49.306;8.636;2023-12-20T04:56:13;100650.75;;;5.56;100.00
25944;BME280;13742;49.306;8.636;2023-12-20T04:57:13;100654.81;;;5.56;100.00
25944;BME280;13742;49.306;8.636;2023-12-20T04:58:13;100656.64;;;5.56;100.00
25944;BME280;13742;49.306;8.636;2023-12-20T04:59:13;100657.98;;;5.55;100.00
25944;BME280;13742;49.306;8.636;2023-12-20T05:00:15;100658.86;;;5.56;100.00
25944;BME280;13742;49.306;8.636;2023-12-20T05:01:13;100657.63;;;5.56;100.00
25944;BME280;13742;49.306;8.636;2023-12-20T05:02:13;100654.00;;;5.55;100.00
25944;BME280;13742;49.306;8.636;2023-12-20T05:03:13;100653.52;;;5.55;100.00
25944;BME280;13742;49.306;8.636;2023-12-20T05:04:13;100657.91;;;5.56;100.00
25944;BME280;13742;49.306;8.636;2023-12-20T05:05:15;100658.91;;;5.56;100.00
25944;BME280;13742;49.306;8.636;2023-12-20T05:06:13;100656.98;;;5.56;100.00
25944;BME280;13742;49.306;8.636;2023-12-20T05:07:13;100656.72;;;5.57;100.00
25944;BME280;13742;49.306;8.636;2023-12-20T05:08:13;100650.72;;;5.56;100.00
25944;BME280;13742;49.306;8.636;2023-12-20T05:09:13;100654.36;;;5.56;100.00
25944;BME280;13742;49.306;8.636;2023-12-20T05:10:13;100653.33;;;5.56;100.00
25944;BME280;13742;49.306;8.636;2023-12-20T05:11:15;100650.66;;;5.57;100.00
25944;BME280;13742;49.306;8.636;2023-12-20T05:12:13;100648.23;;;5.57;100.00
25944;BME280;13742;49.306;8.636;2023-12-20T05:13:13;100648.72;;;5.57;100.00